Main page
METAR-TAF:

METAR-TAF

Airports :

Copenhagen Airport

Copenhagen, Denmark

latitude: 55-37N, longitude: 012-39E, elevation: 5 m

Current weather observation

The report was made 37 minutes ago, at 04:50 UTC
Wind 18 kt from the East/Southeast
Temperature 12°C
Humidity 54%
Pressure 1010 hPa
Visibility 10 km or more

METAR: EKCH 240450Z AUTO 12018KT 9999NDV FEW053/// SCT130/// 12/03 Q1010 NOSIG

Time: 07:27 (05:27 UTC)

Forecast

The report was made 6 hours and 22 minutes ago, at 23:05 UTC
Forecast valid from 24 at 00 UTC to 24 at 24 UTC
Wind 15 kt from the East
Visibility 10 km or more
Few clouds at a height of 4000 ft
Temporary
from 24 at 00 UTC to 24 at 03 UTC
Wind 15 kt from the East/Southeast with gusts up to 25 kt
Broken clouds at a height of 5000 ft, Cumulonimbus.
Temporary
from 24 at 06 UTC to 24 at 16 UTC
Wind 18 kt from the East/Southeast with gusts up to 28 kt

TAF: EKCH 232305Z 2400/2424 09015KT 9999 FEW040 TEMPO 2400/2403 11015G25KT BKN050CB TEMPO 2406/2416 12018G28KT

Weather observations and forecasts of more than 4000 airports (METAR and TAF reports).

The available stations are represented by yellow and red dots on the map.

Hover mouse over dot to see the name of the station.

Then click to see weather observations and forecasts.

To change the map : click on the green buttons with a black cross to zoom in, on the green button with a dash to zoom out, or on the green arrows for adjacent maps.


METAR-TAF: